sensor_id;sensor_type;location;lat;lon;timestamp;P1;durP1;ratioP1;P2;durP2;ratioP2
21138;SDS011;10727;43.600;1.444;2023-01-19T00:02:43;3.83;;;1.10;;
21138;SDS011;10727;43.600;1.444;2023-01-19T00:05:50;1.35;;;0.95;;
21138;SDS011;10727;43.600;1.444;2023-01-19T00:08:56;3.33;;;1.10;;
21138;SDS011;10727;43.600;1.444;2023-01-19T00:12:01;2.30;;;1.00;;
21138;SDS011;10727;43.600;1.444;2023-01-19T00:15:06;1.52;;;1.17;;
21138;SDS011;10727;43.600;1.444;2023-01-19T00:18:11;1.17;;;1.00;;
21138;SDS011;10727;43.600;1.444;2023-01-19T00:21:18;1.60;;;1.00;;
21138;SDS011;10727;43.600;1.444;2023-01-19T00:24:24;1.98;;;1.02;;
21138;SDS011;10727;43.600;1.444;2023-01-19T00:27:29;1.20;;;0.88;;
21138;SDS011;10727;43.600;1.444;2023-01-19T00:30:37;1.30;;;1.00;;
21138;SDS011;10727;43.600;1.444;2023-01-19T00:33:42;0.90;;;0.90;;
21138;SDS011;10727;43.600;1.444;2023-01-19T00:36:52;0.95;;;0.88;;
21138;SDS011;10727;43.600;1.444;2023-01-19T00:39:57;1.33;;;1.02;;
21138;SDS011;10727;43.600;1.444;2023-01-19T00:43:02;1.20;;;1.10;;
21138;SDS011;10727;43.600;1.444;2023-01-19T00:46:06;1.20;;;1.00;;
21138;SDS011;10727;43.600;1.444;2023-01-19T00:49:11;1.10;;;1.00;;
21138;SDS011;10727;43.600;1.444;2023-01-19T00:52:18;1.80;;;1.20;;
21138;SDS011;10727;43.600;1.444;2023-01-19T00:55:23;1.20;;;1.10;;
21138;SDS011;10727;43.600;1.444;2023-01-19T00:58:29;1.00;;;0.90;;
21138;SDS011;10727;43.600;1.444;2023-01-19T01:01:34;1.15;;;1.00;;
21138;SDS011;10727;43.600;1.444;2023-01-19T01:04:39;1.35;;;1.13;;
21138;SDS011;10727;43.600;1.444;2023-01-19T01:07:46;1.00;;;0.90;;
21138;SDS011;10727;43.600;1.444;2023-01-19T01:10:51;1.15;;;0.90;;
21138;SDS011;10727;43.600;1.444;2023-01-19T01:13:56;0.95;;;0.80;;
21138;SDS011;10727;43.600;1.444;2023-01-19T01:17:02;1.58;;;0.90;;
21138;SDS011;10727;43.600;1.444;2023-01-19T01:20:08;1.10;;;1.00;;
21138;SDS011;10727;43.600;1.444;2023-01-19T01:23:14;1.55;;;1.05;;
21138;SDS011;10727;43.600;1.444;2023-01-19T01:26:24;1.40;;;1.10;;
21138;SDS011;10727;43.600;1.444;2023-01-19T01:29:29;1.23;;;0.88;;
21138;SDS011;10727;43.600;1.444;2023-01-19T01:32:37;1.83;;;1.10;;
21138;SDS011;10727;43.600;1.444;2023-01-19T01:35:42;1.17;;;0.90;;
21138;SDS011;10727;43.600;1.444;2023-01-19T01:38:49;1.27;;;0.90;;
21138;SDS011;10727;43.600;1.444;2023-01-19T01:41:54;0.90;;;0.70;;
21138;SDS011;10727;43.600;1.444;2023-01-19T01:44:59;0.93;;;0.85;;
21138;SDS011;10727;43.600;1.444;2023-01-19T01:48:04;1.52;;;1.02;;
21138;SDS011;10727;43.600;1.444;2023-01-19T01:51:12;1.65;;;0.90;;
21138;SDS011;10727;43.600;1.444;2023-01-19T01:54:29;0.85;;;0.80;;
21138;SDS011;10727;43.600;1.444;2023-01-19T01:57:36;0.90;;;0.80;;
21138;SDS011;10727;43.600;1.444;2023-01-19T02:00:41;1.13;;;0.90;;
21138;SDS011;10727;43.600;1.444;2023-01-19T02:04:03;1.73;;;0.98;;
21138;SDS011;10727;43.600;1.444;2023-01-19T02:07:09;1.25;;;0.90;;
21138;SDS011;10727;43.600;1.444;2023-01-19T02:10:34;1.20;;;0.73;;
21138;SDS011;10727;43.600;1.444;2023-01-19T02:13:57;1.00;;;0.85;;
21138;SDS011;10727;43.600;1.444;2023-01-19T02:17:02;1.05;;;0.90;;
21138;SDS011;10727;43.600;1.444;2023-01-19T02:20:07;1.23;;;1.00;;
21138;SDS011;10727;43.600;1.444;2023-01-19T02:23:14;1.10;;;0.90;;
21138;SDS011;10727;43.600;1.444;2023-01-19T02:26:23;0.80;;;0.80;;
21138;SDS011;10727;43.600;1.444;2023-01-19T02:29:28;1.10;;;0.95;;
21138;SDS011;10727;43.600;1.444;2023-01-19T02:32:33;0.95;;;0.80;;
21138;SDS011;10727;43.600;1.444;2023-01-19T02:35:38;1.10;;;0.95;;
21138;SDS011;10727;43.600;1.444;2023-01-19T02:38:44;1.33;;;0.90;;
21138;SDS011;10727;43.600;1.444;2023-01-19T02:41:53;1.27;;;0.80;;
21138;SDS011;10727;43.600;1.444;2023-01-19T02:44:59;1.27;;;0.88;;
21138;SDS011;10727;43.600;1.444;2023-01-19T02:48:08;2.75;;;0.93;;
21138;SDS011;10727;43.600;1.444;2023-01-19T02:51:14;0.80;;;0.70;;
21138;SDS011;10727;43.600;1.444;2023-01-19T02:54:24;1.10;;;0.80;;
21138;SDS011;10727;43.600;1.444;2023-01-19T02:57:38;0.95;;;0.80;;
21138;SDS011;10727;43.600;1.444;2023-01-19T03:00:48;1.95;;;1.08;;
21138;SDS011;10727;43.600;1.444;2023-01-19T03:03:56;0.80;;;0.70;;
21138;SDS011;10727;43.600;1.444;2023-01-19T03:07:05;1.55;;;0.70;;
21138;SDS011;10727;43.600;1.444;2023-01-19T03:10:13;0.93;;;0.80;;
21138;SDS011;10727;43.600;1.444;2023-01-19T03:13:24;0.80;;;0.70;;
21138;SDS011;10727;43.600;1.444;2023-01-19T03:16:33;1.20;;;0.73;;
21138;SDS011;10727;43.600;1.444;2023-01-19T03:19:40;1.23;;;0.70;;
21138;SDS011;10727;43.600;1.444;2023-01-19T03:22:46;1.58;;;0.70;;
21138;SDS011;10727;43.600;1.444;2023-01-19T03:25:53;0.68;;;0.60;;
21138;SDS011;10727;43.600;1.444;2023-01-19T03:29:01;0.60;;;0.60;;
21138;SDS011;10727;43.600;1.444;2023-01-19T03:32:08;0.73;;;0.63;;
21138;SDS011;10727;43.600;1.444;2023-01-19T03:35:14;1.23;;;0.70;;
21138;SDS011;10727;43.600;1.444;2023-01-19T03:38:23;0.70;;;0.68;;
21138;SDS011;10727;43.600;1.444;2023-01-19T03:41:29;1.38;;;0.70;;
21138;SDS011;10727;43.600;1.444;2023-01-19T03:44:37;0.68;;;0.60;;
21138;SDS011;10727;43.600;1.444;2023-01-19T03:47:43;0.88;;;0.65;;
21138;SDS011;10727;43.600;1.444;2023-01-19T03:50:48;1.02;;;0.60;;
21138;SDS011;10727;43.600;1.444;2023-01-19T03:53:54;0.68;;;0.60;;
21138;SDS011;10727;43.600;1.444;2023-01-19T03:56:59;0.73;;;0.63;;
21138;SDS011;10727;43.600;1.444;2023-01-19T04:00:06;0.70;;;0.70;;
21138;SDS011;10727;43.600;1.444;2023-01-19T04:03:15;1.10;;;0.70;;
21138;SDS011;10727;43.600;1.444;2023-01-19T04:06:21;0.65;;;0.60;;
21138;SDS011;10727;43.600;1.444;2023-01-19T04:09:26;0.80;;;0.80;;
21138;SDS011;10727;43.600;1.444;2023-01-19T04:12:31;0.60;;;0.50;;
21138;SDS011;10727;43.600;1.444;2023-01-19T04:15:37;0.70;;;0.65;;
21138;SDS011;10727;43.600;1.444;2023-01-19T04:18:42;1.58;;;0.60;;
21138;SDS011;10727;43.600;1.444;2023-01-19T04:21:47;0.50;;;0.50;;
21138;SDS011;10727;43.600;1.444;2023-01-19T04:24:53;1.52;;;0.70;;
21138;SDS011;10727;43.600;1.444;2023-01-19T04:27:58;0.60;;;0.50;;
21138;SDS011;10727;43.600;1.444;2023-01-19T04:31:05;0.80;;;0.70;;
21138;SDS011;10727;43.600;1.444;2023-01-19T04:34:10;1.02;;;0.70;;
21138;SDS011;10727;43.600;1.444;2023-01-19T04:37:15;0.50;;;0.50;;
21138;SDS011;10727;43.600;1.444;2023-01-19T04:40:20;0.82;;;0.50;;
21138;SDS011;10727;43.600;1.444;2023-01-19T04:43:25;0.98;;;0.60;;
21138;SDS011;10727;43.600;1.444;2023-01-19T04:46:32;0.57;;;0.57;;
21138;SDS011;10727;43.600;1.444;2023-01-19T04:49:37;1.65;;;0.60;;
21138;SDS011;10727;43.600;1.444;2023-01-19T04:52:42;0.55;;;0.50;;
21138;SDS011;10727;43.600;1.444;2023-01-19T04:55:51;0.73;;;0.65;;
21138;SDS011;10727;43.600;1.444;2023-01-19T04:58:56;1.10;;;1.00;;
21138;SDS011;10727;43.600;1.444;2023-01-19T05:02:03;1.17;;;0.68;;
21138;SDS011;10727;43.600;1.444;2023-01-19T05:05:08;0.70;;;0.50;;
21138;SDS011;10727;43.600;1.444;2023-01-19T05:08:13;0.50;;;0.50;;
21138;SDS011;10727;43.600;1.444;2023-01-19T05:11:18;0.70;;;0.70;;
21138;SDS011;10727;43.600;1.444;2023-01-19T05:14:24;0.60;;;0.60;;
21138;SDS011;10727;43.600;1.444;2023-01-19T05:17:30;0.63;;;0.52;;
21138;SDS011;10727;43.600;1.444;2023-01-19T05:20:35;1.25;;;0.60;;
21138;SDS011;10727;43.600;1.444;2023-01-19T05:23:41;0.85;;;0.60;;
21138;SDS011;10727;43.600;1.444;2023-01-19T05:26:46;1.92;;;0.60;;
21138;SDS011;10727;43.600;1.444;2023-01-19T05:29:51;0.55;;;0.55;;
21138;SDS011;10727;43.600;1.444;2023-01-19T05:32:58;0.60;;;0.60;;
21138;SDS011;10727;43.600;1.444;2023-01-19T05:36:03;0.77;;;0.57;;
21138;SDS011;10727;43.600;1.444;2023-01-19T05:39:09;0.80;;;0.57;;
21138;SDS011;10727;43.600;1.444;2023-01-19T05:42:14;0.85;;;0.50;;
21138;SDS011;10727;43.600;1.444;2023-01-19T05:45:19;1.00;;;0.70;;
21138;SDS011;10727;43.600;1.444;2023-01-19T05:48:26;0.65;;;0.57;;
21138;SDS011;10727;43.600;1.444;2023-01-19T05:51:31;1.67;;;0.73;;
21138;SDS011;10727;43.600;1.444;2023-01-19T05:54:40;0.60;;;0.60;;
21138;SDS011;10727;43.600;1.444;2023-01-19T05:57:45;0.77;;;0.70;;
21138;SDS011;10727;43.600;1.444;2023-01-19T06:00:50;0.60;;;0.60;;
21138;SDS011;10727;43.600;1.444;2023-01-19T06:03:56;0.60;;;0.60;;
21138;SDS011;10727;43.600;1.444;2023-01-19T06:07:01;1.08;;;0.60;;
21138;SDS011;10727;43.600;1.444;2023-01-19T06:10:06;1.00;;;0.90;;
21138;SDS011;10727;43.600;1.444;2023-01-19T06:13:11;0.88;;;0.65;;
21138;SDS011;10727;43.600;1.444;2023-01-19T06:16:17;0.90;;;0.70;;
21138;SDS011;10727;43.600;1.444;2023-01-19T06:19:23;0.95;;;0.65;;
21138;SDS011;10727;43.600;1.444;2023-01-19T06:22:28;1.60;;;0.60;;
21138;SDS011;10727;43.600;1.444;2023-01-19T06:25:33;0.85;;;0.68;;
21138;SDS011;10727;43.600;1.444;2023-01-19T06:28:38;0.98;;;0.50;;
21138;SDS011;10727;43.600;1.444;2023-01-19T06:31:44;0.98;;;0.60;;
21138;SDS011;10727;43.600;1.444;2023-01-19T06:34:50;1.52;;;0.60;;
21138;SDS011;10727;43.600;1.444;2023-01-19T06:37:55;0.75;;;0.63;;
21138;SDS011;10727;43.600;1.444;2023-01-19T06:41:00;9.15;;;0.82;;
21138;SDS011;10727;43.600;1.444;2023-01-19T06:44:06;7.03;;;0.80;;
21138;SDS011;10727;43.600;1.444;2023-01-19T06:47:11;1.40;;;0.47;;
21138;SDS011;10727;43.600;1.444;2023-01-19T06:50:18;2.33;;;0.70;;
21138;SDS011;10727;43.600;1.444;2023-01-19T06:53:23;2.83;;;0.60;;
21138;SDS011;10727;43.600;1.444;2023-01-19T06:56:30;0.75;;;0.60;;
21138;SDS011;10727;43.600;1.444;2023-01-19T06:59:35;0.90;;;0.70;;
21138;SDS011;10727;43.600;1.444;2023-01-19T07:02:40;0.60;;;0.60;;
21138;SDS011;10727;43.600;1.444;2023-01-19T07:05:49;1.35;;;0.70;;
21138;SDS011;10727;43.600;1.444;2023-01-19T07:08:54;1.10;;;0.70;;
21138;SDS011;10727;43.600;1.444;2023-01-19T07:12:00;1.33;;;0.70;;
21138;SDS011;10727;43.600;1.444;2023-01-19T07:15:06;1.60;;;0.70;;
21138;SDS011;10727;43.600;1.444;2023-01-19T07:18:11;1.85;;;0.68;;
21138;SDS011;10727;43.600;1.444;2023-01-19T07:21:18;2.63;;;0.80;;
21138;SDS011;10727;43.600;1.444;2023-01-19T07:24:23;0.65;;;0.60;;
21138;SDS011;10727;43.600;1.444;2023-01-19T07:27:28;2.35;;;0.80;;
21138;SDS011;10727;43.600;1.444;2023-01-19T07:30:33;1.48;;;0.77;;
21138;SDS011;10727;43.600;1.444;2023-01-19T07:33:38;2.28;;;0.60;;
21138;SDS011;10727;43.600;1.444;2023-01-19T07:36:44;1.13;;;0.68;;
21138;SDS011;10727;43.600;1.444;2023-01-19T07:39:49;1.65;;;0.70;;
21138;SDS011;10727;43.600;1.444;2023-01-19T07:42:54;2.38;;;0.70;;
21138;SDS011;10727;43.600;1.444;2023-01-19T07:46:01;1.65;;;0.68;;
21138;SDS011;10727;43.600;1.444;2023-01-19T07:49:06;1.05;;;0.80;;
21138;SDS011;10727;43.600;1.444;2023-01-19T07:52:13;2.05;;;0.60;;
21138;SDS011;10727;43.600;1.444;2023-01-19T07:55:18;1.10;;;0.68;;
21138;SDS011;10727;43.600;1.444;2023-01-19T07:58:23;1.60;;;0.70;;
21138;SDS011;10727;43.600;1.444;2023-01-19T08:01:29;4.97;;;0.77;;
21138;SDS011;10727;43.600;1.444;2023-01-19T08:04:34;1.00;;;0.60;;
21138;SDS011;10727;43.600;1.444;2023-01-19T08:07:41;2.03;;;0.70;;
21138;SDS011;10727;43.600;1.444;2023-01-19T08:10:48;1.13;;;0.70;;
21138;SDS011;10727;43.600;1.444;2023-01-19T08:13:53;2.90;;;0.80;;
21138;SDS011;10727;43.600;1.444;2023-01-19T08:16:58;1.77;;;0.90;;
21138;SDS011;10727;43.600;1.444;2023-01-19T08:20:03;1.30;;;0.80;;
21138;SDS011;10727;43.600;1.444;2023-01-19T08:23:12;1.55;;;0.60;;
21138;SDS011;10727;43.600;1.444;2023-01-19T08:26:20;0.85;;;0.70;;
21138;SDS011;10727;43.600;1.444;2023-01-19T08:29:29;0.82;;;0.55;;
21138;SDS011;10727;43.600;1.444;2023-01-19T08:32:35;1.42;;;0.75;;
21138;SDS011;10727;43.600;1.444;2023-01-19T08:35:41;0.77;;;0.70;;
21138;SDS011;10727;43.600;1.444;2023-01-19T08:38:47;2.10;;;0.70;;
21138;SDS011;10727;43.600;1.444;2023-01-19T08:41:52;1.52;;;0.70;;
21138;SDS011;10727;43.600;1.444;2023-01-19T08:44:57;2.17;;;0.80;;
21138;SDS011;10727;43.600;1.444;2023-01-19T08:48:03;1.33;;;0.80;;
21138;SDS011;10727;43.600;1.444;2023-01-19T08:51:09;0.90;;;0.70;;
21138;SDS011;10727;43.600;1.444;2023-01-19T08:54:15;3.55;;;0.77;;
21138;SDS011;10727;43.600;1.444;2023-01-19T08:57:22;0.80;;;0.80;;
21138;SDS011;10727;43.600;1.444;2023-01-19T09:00:27;1.20;;;0.95;;
21138;SDS011;10727;43.600;1.444;2023-01-19T09:03:33;2.35;;;0.98;;
21138;SDS011;10727;43.600;1.444;2023-01-19T09:06:38;2.22;;;0.90;;
21138;SDS011;10727;43.600;1.444;2023-01-19T09:09:44;1.40;;;0.90;;
21138;SDS011;10727;43.600;1.444;2023-01-19T09:12:49;1.02;;;0.93;;
21138;SDS011;10727;43.600;1.444;2023-01-19T09:15:55;1.45;;;0.93;;
21138;SDS011;10727;43.600;1.444;2023-01-19T09:19:00;1.73;;;0.90;;
21138;SDS011;10727;43.600;1.444;2023-01-19T09:22:05;1.95;;;1.02;;
21138;SDS011;10727;43.600;1.444;2023-01-19T09:25:11;1.45;;;1.00;;
21138;SDS011;10727;43.600;1.444;2023-01-19T09:28:16;1.40;;;1.10;;
21138;SDS011;10727;43.600;1.444;2023-01-19T09:31:22;2.15;;;1.00;;
21138;SDS011;10727;43.600;1.444;2023-01-19T09:34:27;3.65;;;1.13;;
21138;SDS011;10727;43.600;1.444;2023-01-19T09:37:33;1.75;;;1.08;;
21138;SDS011;10727;43.600;1.444;2023-01-19T09:40:41;1.67;;;1.30;;
21138;SDS011;10727;43.600;1.444;2023-01-19T09:43:47;2.25;;;1.08;;
21138;SDS011;10727;43.600;1.444;2023-01-19T09:46:54;5.55;;;1.00;;
21138;SDS011;10727;43.600;1.444;2023-01-19T09:50:01;3.53;;;1.08;;
21138;SDS011;10727;43.600;1.444;2023-01-19T09:53:09;2.15;;;1.15;;
21138;SDS011;10727;43.600;1.444;2023-01-19T09:56:19;1.70;;;1.10;;
21138;SDS011;10727;43.600;1.444;2023-01-19T09:59:25;2.22;;;1.08;;
21138;SDS011;10727;43.600;1.444;2023-01-19T10:02:34;2.40;;;1.10;;
21138;SDS011;10727;43.600;1.444;2023-01-19T10:05:41;1.80;;;1.17;;
21138;SDS011;10727;43.600;1.444;2023-01-19T10:08:50;3.45;;;1.15;;
21138;SDS011;10727;43.600;1.444;2023-01-19T10:12:01;1.73;;;0.90;;
21138;SDS011;10727;43.600;1.444;2023-01-19T10:15:12;2.90;;;1.23;;
21138;SDS011;10727;43.600;1.444;2023-01-19T10:18:20;1.95;;;1.20;;
21138;SDS011;10727;43.600;1.444;2023-01-19T10:21:29;1.85;;;1.00;;
21138;SDS011;10727;43.600;1.444;2023-01-19T10:24:36;1.80;;;0.90;;
21138;SDS011;10727;43.600;1.444;2023-01-19T10:27:44;2.90;;;0.90;;
21138;SDS011;10727;43.600;1.444;2023-01-19T10:30:49;2.17;;;1.10;;
21138;SDS011;10727;43.600;1.444;2023-01-19T10:33:55;2.15;;;1.20;;
21138;SDS011;10727;43.600;1.444;2023-01-19T10:37:01;1.48;;;1.02;;
21138;SDS011;10727;43.600;1.444;2023-01-19T10:40:13;1.50;;;0.90;;
21138;SDS011;10727;43.600;1.444;2023-01-19T10:43:36;2.25;;;0.82;;
21138;SDS011;10727;43.600;1.444;2023-01-19T10:46:42;1.55;;;0.90;;
21138;SDS011;10727;43.600;1.444;2023-01-19T10:49:47;1.27;;;0.80;;
21138;SDS011;10727;43.600;1.444;2023-01-19T10:52:52;2.05;;;1.10;;
21138;SDS011;10727;43.600;1.444;2023-01-19T10:56:08;2.10;;;1.33;;
21138;SDS011;10727;43.600;1.444;2023-01-19T10:59:29;3.63;;;0.90;;
21138;SDS011;10727;43.600;1.444;2023-01-19T11:02:34;2.47;;;1.33;;
21138;SDS011;10727;43.600;1.444;2023-01-19T11:05:40;3.50;;;1.13;;
21138;SDS011;10727;43.600;1.444;2023-01-19T11:08:46;1.45;;;1.00;;
21138;SDS011;10727;43.600;1.444;2023-01-19T11:11:52;1.33;;;0.95;;
21138;SDS011;10727;43.600;1.444;2023-01-19T11:14:59;2.45;;;1.08;;
21138;SDS011;10727;43.600;1.444;2023-01-19T11:18:21;1.88;;;1.00;;
21138;SDS011;10727;43.600;1.444;2023-01-19T11:21:28;2.55;;;0.93;;
21138;SDS011;10727;43.600;1.444;2023-01-19T11:24:35;1.20;;;1.10;;
21138;SDS011;10727;43.600;1.444;2023-01-19T11:27:46;1.98;;;1.10;;
21138;SDS011;10727;43.600;1.444;2023-01-19T11:30:54;2.38;;;1.05;;
21138;SDS011;10727;43.600;1.444;2023-01-19T11:33:59;1.52;;;1.00;;
21138;SDS011;10727;43.600;1.444;2023-01-19T11:37:20;2.22;;;1.20;;
21138;SDS011;10727;43.600;1.444;2023-01-19T11:40:29;1.70;;;1.10;;
21138;SDS011;10727;43.600;1.444;2023-01-19T11:43:34;1.85;;;1.17;;
21138;SDS011;10727;43.600;1.444;2023-01-19T11:46:42;1.55;;;1.15;;
21138;SDS011;10727;43.600;1.444;2023-01-19T11:49:48;2.30;;;1.20;;
21138;SDS011;10727;43.600;1.444;2023-01-19T11:52:56;1.52;;;1.20;;
21138;SDS011;10727;43.600;1.444;2023-01-19T11:56:05;1.42;;;1.05;;
21138;SDS011;10727;43.600;1.444;2023-01-19T11:59:12;2.15;;;1.40;;
21138;SDS011;10727;43.600;1.444;2023-01-19T12:02:22;2.75;;;1.30;;
21138;SDS011;10727;43.600;1.444;2023-01-19T12:05:29;3.63;;;1.30;;
21138;SDS011;10727;43.600;1.444;2023-01-19T12:08:36;2.78;;;1.60;;
21138;SDS011;10727;43.600;1.444;2023-01-19T12:11:43;3.10;;;1.27;;
21138;SDS011;10727;43.600;1.444;2023-01-19T12:14:51;3.65;;;1.50;;
21138;SDS011;10727;43.600;1.444;2023-01-19T12:18:00;1.58;;;1.40;;
21138;SDS011;10727;43.600;1.444;2023-01-19T12:21:06;5.28;;;1.45;;
21138;SDS011;10727;43.600;1.444;2023-01-19T12:24:11;4.22;;;1.70;;
21138;SDS011;10727;43.600;1.444;2023-01-19T12:27:25;3.85;;;1.75;;
21138;SDS011;10727;43.600;1.444;2023-01-19T12:30:38;3.45;;;1.60;;
21138;SDS011;10727;43.600;1.444;2023-01-19T12:33:45;5.15;;;2.08;;
21138;SDS011;10727;43.600;1.444;2023-01-19T12:36:51;4.47;;;3.38;;
21138;SDS011;10727;43.600;1.444;2023-01-19T12:39:56;7.75;;;3.80;;
21138;SDS011;10727;43.600;1.444;2023-01-19T12:43:03;13.45;;;9.43;;
21138;SDS011;10727;43.600;1.444;2023-01-19T12:46:17;10.25;;;8.10;;
21138;SDS011;10727;43.600;1.444;2023-01-19T12:49:27;12.68;;;9.77;;
21138;SDS011;10727;43.600;1.444;2023-01-19T12:52:35;19.15;;;14.45;;
21138;SDS011;10727;43.600;1.444;2023-01-19T12:55:56;14.43;;;9.93;;
21138;SDS011;10727;43.600;1.444;2023-01-19T12:59:03;15.00;;;10.30;;
21138;SDS011;10727;43.600;1.444;2023-01-19T13:09:19;13.85;;;10.20;;
21138;SDS011;10727;43.600;1.444;2023-01-19T13:12:31;15.63;;;9.98;;
21138;SDS011;10727;43.600;1.444;2023-01-19T13:15:36;14.57;;;9.50;;
21138;SDS011;10727;43.600;1.444;2023-01-19T13:18:43;13.32;;;9.40;;
21138;SDS011;10727;43.600;1.444;2023-01-19T13:21:50;13.32;;;9.50;;
21138;SDS011;10727;43.600;1.444;2023-01-19T13:25:04;12.15;;;9.05;;
21138;SDS011;10727;43.600;1.444;2023-01-19T13:28:11;13.38;;;8.95;;
21138;SDS011;10727;43.600;1.444;2023-01-19T13:31:17;12.02;;;8.43;;
21138;SDS011;10727;43.600;1.444;2023-01-19T13:34:24;14.00;;;8.85;;
21138;SDS011;10727;43.600;1.444;2023-01-19T13:37:35;14.40;;;8.70;;
21138;SDS011;10727;43.600;1.444;2023-01-19T13:40:43;14.77;;;7.50;;
21138;SDS011;10727;43.600;1.444;2023-01-19T13:43:48;11.43;;;7.57;;
21138;SDS011;10727;43.600;1.444;2023-01-19T13:46:56;10.50;;;7.82;;
21138;SDS011;10727;43.600;1.444;2023-01-19T13:50:02;9.80;;;7.03;;
21138;SDS011;10727;43.600;1.444;2023-01-19T13:53:18;11.07;;;7.32;;
21138;SDS011;10727;43.600;1.444;2023-01-19T13:56:27;11.38;;;7.10;;
21138;SDS011;10727;43.600;1.444;2023-01-19T13:59:32;11.38;;;6.32;;
21138;SDS011;10727;43.600;1.444;2023-01-19T14:02:37;10.27;;;6.65;;
21138;SDS011;10727;43.600;1.444;2023-01-19T14:05:43;12.25;;;5.95;;
21138;SDS011;10727;43.600;1.444;2023-01-19T14:12:11;9.82;;;5.90;;
21138;SDS011;10727;43.600;1.444;2023-01-19T14:15:17;9.18;;;5.95;;
21138;SDS011;10727;43.600;1.444;2023-01-19T14:18:23;9.95;;;5.40;;
21138;SDS011;10727;43.600;1.444;2023-01-19T14:21:36;8.98;;;5.15;;
21138;SDS011;10727;43.600;1.444;2023-01-19T14:24:42;9.02;;;4.97;;
21138;SDS011;10727;43.600;1.444;2023-01-19T14:27:48;7.70;;;5.00;;
21138;SDS011;10727;43.600;1.444;2023-01-19T14:30:53;10.60;;;5.10;;
21138;SDS011;10727;43.600;1.444;2023-01-19T14:33:58;8.45;;;4.65;;
21138;SDS011;10727;43.600;1.444;2023-01-19T14:37:04;8.70;;;4.47;;
21138;SDS011;10727;43.600;1.444;2023-01-19T14:40:14;6.47;;;4.35;;
21138;SDS011;10727;43.600;1.444;2023-01-19T14:43:21;10.38;;;4.03;;
21138;SDS011;10727;43.600;1.444;2023-01-19T14:46:30;6.47;;;3.90;;
21138;SDS011;10727;43.600;1.444;2023-01-19T14:49:35;6.10;;;3.80;;
21138;SDS011;10727;43.600;1.444;2023-01-19T14:52:41;7.45;;;3.65;;
21138;SDS011;10727;43.600;1.444;2023-01-19T14:55:52;5.07;;;3.70;;
21138;SDS011;10727;43.600;1.444;2023-01-19T14:59:00;5.53;;;3.40;;
21138;SDS011;10727;43.600;1.444;2023-01-19T15:02:05;5.38;;;3.50;;
21138;SDS011;10727;43.600;1.444;2023-01-19T15:05:10;7.45;;;3.33;;
21138;SDS011;10727;43.600;1.444;2023-01-19T15:08:15;4.90;;;2.90;;
21138;SDS011;10727;43.600;1.444;2023-01-19T15:11:23;6.43;;;3.15;;
21138;SDS011;10727;43.600;1.444;2023-01-19T15:14:30;4.30;;;2.83;;
21138;SDS011;10727;43.600;1.444;2023-01-19T15:17:35;5.65;;;3.22;;
21138;SDS011;10727;43.600;1.444;2023-01-19T15:20:40;4.60;;;2.88;;
21138;SDS011;10727;43.600;1.444;2023-01-19T15:23:45;4.88;;;2.80;;
21138;SDS011;10727;43.600;1.444;2023-01-19T15:26:51;4.22;;;2.80;;
21138;SDS011;10727;43.600;1.444;2023-01-19T15:29:57;4.80;;;2.60;;
21138;SDS011;10727;43.600;1.444;2023-01-19T15:33:02;4.72;;;2.50;;
21138;SDS011;10727;43.600;1.444;2023-01-19T15:36:10;4.45;;;2.17;;
21138;SDS011;10727;43.600;1.444;2023-01-19T15:39:16;6.20;;;2.75;;
21138;SDS011;10727;43.600;1.444;2023-01-19T15:42:21;5.00;;;2.50;;
21138;SDS011;10727;43.600;1.444;2023-01-19T15:45:31;4.28;;;2.13;;
21138;SDS011;10727;43.600;1.444;2023-01-19T15:48:36;4.97;;;2.35;;
21138;SDS011;10727;43.600;1.444;2023-01-19T15:51:41;4.88;;;2.20;;
21138;SDS011;10727;43.600;1.444;2023-01-19T15:54:47;3.90;;;2.30;;
21138;SDS011;10727;43.600;1.444;2023-01-19T15:57:52;4.50;;;2.20;;
21138;SDS011;10727;43.600;1.444;2023-01-19T16:01:01;3.67;;;2.05;;
21138;SDS011;10727;43.600;1.444;2023-01-19T16:04:06;2.65;;;1.95;;
21138;SDS011;10727;43.600;1.444;2023-01-19T16:07:13;3.03;;;1.90;;
21138;SDS011;10727;43.600;1.444;2023-01-19T16:10:18;4.43;;;1.85;;
21138;SDS011;10727;43.600;1.444;2023-01-19T16:13:23;4.38;;;2.17;;
21138;SDS011;10727;43.600;1.444;2023-01-19T16:16:30;2.95;;;1.85;;
21138;SDS011;10727;43.600;1.444;2023-01-19T16:19:35;4.90;;;1.90;;
21138;SDS011;10727;43.600;1.444;2023-01-19T16:22:40;4.15;;;1.92;;
21138;SDS011;10727;43.600;1.444;2023-01-19T16:25:53;3.22;;;1.98;;
21138;SDS011;10727;43.600;1.444;2023-01-19T16:28:59;4.88;;;2.10;;
21138;SDS011;10727;43.600;1.444;2023-01-19T16:32:06;2.28;;;1.55;;
21138;SDS011;10727;43.600;1.444;2023-01-19T16:35:11;2.72;;;2.00;;
21138;SDS011;10727;43.600;1.444;2023-01-19T16:38:20;5.03;;;1.88;;
21138;SDS011;10727;43.600;1.444;2023-01-19T16:41:25;3.58;;;1.60;;
21138;SDS011;10727;43.600;1.444;2023-01-19T16:44:30;4.07;;;1.63;;
21138;SDS011;10727;43.600;1.444;2023-01-19T16:47:37;6.00;;;2.10;;
21138;SDS011;10727;43.600;1.444;2023-01-19T16:50:42;4.55;;;1.90;;
21138;SDS011;10727;43.600;1.444;2023-01-19T16:53:47;4.43;;;1.73;;
21138;SDS011;10727;43.600;1.444;2023-01-19T16:56:53;4.50;;;1.83;;
21138;SDS011;10727;43.600;1.444;2023-01-19T16:59:59;3.25;;;1.70;;
21138;SDS011;10727;43.600;1.444;2023-01-19T17:03:05;2.20;;;1.45;;
21138;SDS011;10727;43.600;1.444;2023-01-19T17:06:11;3.90;;;1.73;;
21138;SDS011;10727;43.600;1.444;2023-01-19T17:09:16;7.75;;;1.80;;
21138;SDS011;10727;43.600;1.444;2023-01-19T17:12:21;3.00;;;1.50;;
21138;SDS011;10727;43.600;1.444;2023-01-19T17:15:26;4.60;;;1.63;;
21138;SDS011;10727;43.600;1.444;2023-01-19T17:18:33;7.05;;;1.65;;
21138;SDS011;10727;43.600;1.444;2023-01-19T17:21:39;3.92;;;1.50;;
21138;SDS011;10727;43.600;1.444;2023-01-19T17:24:45;6.60;;;1.60;;
21138;SDS011;10727;43.600;1.444;2023-01-19T17:27:51;6.70;;;1.70;;
21138;SDS011;10727;43.600;1.444;2023-01-19T17:30:58;4.20;;;1.70;;
21138;SDS011;10727;43.600;1.444;2023-01-19T17:34:14;5.60;;;1.65;;
21138;SDS011;10727;43.600;1.444;2023-01-19T17:37:19;8.55;;;1.70;;
21138;SDS011;10727;43.600;1.444;2023-01-19T17:40:24;7.85;;;1.40;;
21138;SDS011;10727;43.600;1.444;2023-01-19T17:43:29;6.85;;;1.67;;
21138;SDS011;10727;43.600;1.444;2023-01-19T17:46:35;5.15;;;1.77;;
21138;SDS011;10727;43.600;1.444;2023-01-19T17:49:41;3.13;;;1.50;;
21138;SDS011;10727;43.600;1.444;2023-01-19T17:52:47;3.70;;;1.88;;
21138;SDS011;10727;43.600;1.444;2023-01-19T17:55:52;3.35;;;1.60;;
21138;SDS011;10727;43.600;1.444;2023-01-19T17:58:57;7.50;;;1.88;;
21138;SDS011;10727;43.600;1.444;2023-01-19T18:02:02;2.83;;;1.50;;
21138;SDS011;10727;43.600;1.444;2023-01-19T18:05:09;3.47;;;1.50;;
21138;SDS011;10727;43.600;1.444;2023-01-19T18:08:15;6.00;;;1.70;;
21138;SDS011;10727;43.600;1.444;2023-01-19T18:11:21;5.07;;;1.35;;
21138;SDS011;10727;43.600;1.444;2023-01-19T18:14:26;7.15;;;1.30;;
21138;SDS011;10727;43.600;1.444;2023-01-19T18:17:31;4.80;;;1.70;;
21138;SDS011;10727;43.600;1.444;2023-01-19T18:20:37;3.55;;;1.73;;
21138;SDS011;10727;43.600;1.444;2023-01-19T18:23:42;5.95;;;1.60;;
21138;SDS011;10727;43.600;1.444;2023-01-19T18:26:48;4.30;;;1.60;;
21138;SDS011;10727;43.600;1.444;2023-01-19T18:29:53;2.60;;;1.60;;
21138;SDS011;10727;43.600;1.444;2023-01-19T18:32:58;6.95;;;1.80;;
21138;SDS011;10727;43.600;1.444;2023-01-19T18:36:05;2.65;;;1.48;;
21138;SDS011;10727;43.600;1.444;2023-01-19T18:39:11;2.40;;;1.60;;
21138;SDS011;10727;43.600;1.444;2023-01-19T18:42:16;3.30;;;1.60;;
21138;SDS011;10727;43.600;1.444;2023-01-19T18:45:22;4.75;;;1.70;;
21138;SDS011;10727;43.600;1.444;2023-01-19T18:48:27;2.85;;;1.52;;
21138;SDS011;10727;43.600;1.444;2023-01-19T18:51:34;2.63;;;1.40;;
21138;SDS011;10727;43.600;1.444;2023-01-19T18:54:41;2.47;;;1.60;;